createdAt,value
2019-06-01T00:00:11.624Z,17.00
2019-06-01T00:02:36.107Z,17.00
2019-06-01T00:05:06.713Z,17.20
2019-06-01T00:07:35.540Z,17.10
2019-06-01T00:10:06.901Z,17.00
2019-06-01T00:12:35.587Z,17.00
2019-06-01T00:15:06.686Z,16.90
2019-06-01T00:17:35.347Z,16.90
2019-06-01T00:20:05.356Z,16.80
2019-06-01T00:22:35.194Z,16.80
2019-06-01T00:25:05.683Z,16.60
2019-06-01T00:27:34.422Z,16.50
2019-06-01T00:30:03.193Z,16.80
2019-06-01T00:32:31.891Z,16.80
2019-06-01T00:35:00.595Z,16.90
2019-06-01T00:37:29.374Z,16.90
2019-06-01T00:39:58.208Z,16.90
2019-06-01T00:42:27.272Z,16.90
2019-06-01T00:44:56.266Z,16.90
2019-06-01T00:47:25.389Z,16.80
2019-06-01T00:49:54.103Z,16.60
2019-06-01T00:52:22.927Z,16.60
2019-06-01T00:54:51.902Z,16.70
2019-06-01T00:57:22.226Z,16.70
2019-06-01T00:59:53.112Z,16.70
2019-06-01T01:02:21.367Z,16.50
2019-06-01T01:05:02.176Z,16.30
2019-06-01T01:07:31.530Z,16.50
2019-06-01T01:10:00.499Z,16.50
2019-06-01T01:12:29.439Z,16.60
2019-06-01T01:14:58.247Z,16.60
2019-06-01T01:17:27.115Z,16.60
2019-06-01T01:20:02.723Z,16.40
2019-06-01T01:22:31.450Z,16.30
2019-06-01T01:25:00.160Z,16.30
2019-06-01T01:27:28.783Z,16.20
2019-06-01T01:29:57.705Z,16.00
2019-06-01T01:32:26.460Z,16.00
2019-06-01T01:34:55.610Z,15.90
2019-06-01T01:37:24.474Z,15.80
2019-06-01T01:39:54.233Z,15.60
2019-06-01T01:42:23.168Z,15.80
2019-06-01T01:44:52.533Z,15.90
2019-06-01T01:47:21.499Z,15.90
2019-06-01T01:49:50.133Z,16.00
2019-06-01T01:52:18.872Z,16.10
2019-06-01T01:54:47.615Z,16.10
2019-06-01T01:57:16.389Z,16.00
2019-06-01T01:59:45.091Z,15.90
2019-06-01T02:02:17.075Z,15.90
2019-06-01T02:04:46.017Z,15.80
2019-06-01T02:07:14.923Z,15.90
2019-06-01T02:09:43.897Z,15.80
2019-06-01T02:12:12.535Z,15.80
2019-06-01T02:14:41.266Z,15.90
2019-06-01T02:17:10.035Z,15.90
2019-06-01T02:19:39.034Z,15.90
2019-06-01T02:22:07.997Z,15.90
2019-06-01T02:24:36.712Z,15.90
2019-06-01T02:27:05.581Z,15.90
2019-06-01T02:29:34.331Z,15.90
2019-06-01T02:32:04.723Z,15.80
2019-06-01T02:34:33.526Z,15.80
2019-06-01T02:37:02.404Z,15.80
2019-06-01T02:39:31.483Z,15.80
2019-06-01T02:42:01.254Z,15.80
2019-06-01T02:44:30.818Z,15.80
2019-06-01T02:46:59.661Z,15.80
2019-06-01T02:49:29.883Z,15.80
2019-06-01T02:51:59.254Z,15.80
2019-06-01T02:54:28.041Z,15.80
2019-06-01T02:56:57.812Z,15.70
2019-06-01T02:59:26.711Z,15.60
2019-06-01T03:02:01.391Z,15.60
2019-06-01T03:04:27.472Z,15.60
2019-06-01T03:06:59.542Z,15.60
2019-06-01T03:09:30.198Z,15.70
2019-06-01T03:12:02.331Z,15.80
2019-06-01T03:14:33.953Z,15.80
2019-06-01T03:17:04.167Z,15.80
2019-06-01T03:19:36.302Z,15.70
2019-06-01T03:22:07.257Z,15.90
2019-06-01T03:24:36.863Z,16.00
2019-06-01T03:27:06.385Z,16.30
2019-06-01T03:29:38.507Z,16.40
2019-06-01T03:32:29.037Z,16.40
2019-06-01T03:34:37.751Z,16.40
2019-06-01T03:37:07.203Z,16.50
2019-06-01T03:39:36.232Z,16.50
2019-06-01T03:42:05.284Z,16.60
2019-06-01T03:44:34.235Z,16.60
2019-06-01T03:47:03.789Z,16.60
2019-06-01T03:49:32.695Z,16.70
2019-06-01T03:52:02.597Z,16.80
2019-06-01T03:54:31.590Z,16.90
2019-06-01T03:57:00.882Z,17.00
2019-06-01T03:59:29.946Z,17.00
2019-06-01T04:01:58.530Z,17.00
2019-06-01T04:04:27.237Z,16.90
2019-06-01T04:06:56.002Z,16.90
2019-06-01T04:09:25.303Z,16.90
2019-06-01T04:11:54.275Z,16.80
2019-06-01T04:14:22.951Z,16.80
2019-06-01T04:16:51.937Z,16.80
2019-06-01T04:19:20.831Z,16.60
2019-06-01T04:21:49.664Z,16.60
2019-06-01T04:24:18.503Z,17.20
2019-06-01T04:26:47.299Z,17.70
2019-06-01T04:29:15.947Z,17.90
2019-06-01T04:31:44.814Z,18.10
2019-06-01T04:34:13.589Z,17.90
2019-06-01T04:36:42.491Z,18.00
2019-06-01T04:39:11.668Z,18.00
2019-06-01T04:41:40.477Z,18.00
2019-06-01T04:44:10.040Z,18.30
2019-06-01T04:46:38.953Z,18.40
2019-06-01T04:49:08.557Z,18.70
2019-06-01T04:51:37.569Z,19.00
2019-06-01T04:54:06.861Z,20.30
2019-06-01T04:56:35.597Z,22.00
2019-06-01T04:59:04.925Z,23.70
2019-06-01T05:01:33.987Z,24.60
2019-06-01T05:04:02.655Z,24.20
2019-06-01T05:06:31.595Z,23.50
2019-06-01T05:09:00.461Z,22.80
2019-06-01T05:11:29.395Z,22.50
2019-06-01T05:13:58.278Z,23.50
2019-06-01T05:16:27.104Z,24.40
2019-06-01T05:18:56.129Z,24.70
2019-06-01T05:21:25.262Z,25.00
2019-06-01T05:23:54.100Z,25.20
2019-06-01T05:26:23.158Z,25.10
2019-06-01T05:28:52.187Z,25.80
2019-06-01T05:31:25.063Z,26.40
2019-06-01T05:33:51.765Z,27.20
2019-06-01T05:36:20.973Z,26.70
2019-06-01T05:38:50.106Z,26.80
2019-06-01T05:41:20.499Z,27.70
2019-06-01T05:43:49.474Z,28.40
2019-06-01T05:46:18.160Z,27.80
2019-06-01T05:48:47.613Z,27.50
2019-06-01T05:51:18.884Z,27.10
2019-06-01T05:53:48.596Z,26.50
2019-06-01T05:56:18.856Z,25.80
2019-06-01T05:58:49.355Z,26.00
2019-06-01T06:01:19.686Z,26.00
2019-06-01T06:03:48.903Z,25.10
2019-06-01T06:06:18.012Z,24.60
2019-06-01T06:08:46.653Z,23.70
2019-06-01T06:11:15.466Z,24.50
2019-06-01T06:13:44.274Z,25.20
2019-06-01T06:16:13.799Z,25.60
2019-06-01T06:18:42.613Z,25.90
2019-06-01T06:21:11.967Z,26.70
2019-06-01T06:23:41.053Z,27.60
2019-06-01T06:26:09.811Z,28.30
2019-06-01T06:28:38.535Z,27.90
2019-06-01T06:31:07.340Z,28.60
2019-06-01T06:33:37.009Z,29.00
2019-06-01T06:36:06.152Z,28.00
2019-06-01T06:38:35.004Z,26.80
2019-06-01T06:41:03.779Z,25.70
2019-06-01T06:43:33.336Z,26.10
2019-06-01T06:46:02.053Z,26.60
2019-06-01T06:48:30.913Z,26.70
2019-06-01T06:51:00.892Z,26.90
2019-06-01T06:53:34.816Z,26.20
2019-06-01T06:56:00.603Z,26.20
2019-06-01T06:58:29.538Z,26.20
2019-06-01T07:00:58.433Z,26.10
2019-06-01T07:03:27.551Z,25.90
2019-06-01T07:05:56.377Z,25.60
2019-06-01T07:08:25.976Z,24.80
2019-06-01T07:10:57.851Z,24.10
2019-06-01T07:13:27.615Z,24.30
2019-06-01T07:15:56.575Z,25.50
2019-06-01T07:18:25.745Z,26.30
2019-06-01T07:20:54.640Z,26.10
2019-06-01T07:23:23.853Z,25.60
2019-06-01T07:25:52.879Z,25.70
2019-06-01T07:28:22.043Z,26.60
2019-06-01T07:30:50.931Z,28.20
2019-06-01T07:33:20.498Z,28.50
2019-06-01T07:35:49.722Z,29.00
2019-06-01T07:38:18.545Z,29.50
2019-06-01T07:40:47.215Z,29.10
2019-06-01T07:43:15.925Z,28.50
2019-06-01T07:45:44.762Z,28.10
2019-06-01T07:48:13.945Z,27.50
2019-06-01T07:50:42.692Z,27.30
2019-06-01T07:53:11.476Z,27.10
2019-06-01T07:55:40.352Z,26.60
2019-06-01T07:58:09.146Z,25.20
2019-06-01T08:00:38.080Z,24.30
2019-06-01T08:03:06.893Z,24.30
2019-06-01T08:05:35.795Z,24.40
2019-06-01T08:08:04.612Z,25.60
2019-06-01T08:10:33.607Z,26.40
2019-06-01T08:13:04.830Z,28.00
2019-06-01T08:17:21.961Z,28.70
2019-06-01T08:18:32.792Z,29.10
2019-06-01T08:20:59.150Z,29.10
2019-06-01T08:23:28.371Z,29.30
2019-06-01T08:25:57.566Z,29.40
2019-06-01T08:28:26.553Z,29.40
2019-06-01T08:30:55.261Z,29.60
2019-06-01T08:33:26.382Z,29.40
2019-06-01T08:35:54.344Z,29.10
2019-06-01T08:38:23.407Z,29.30
2019-06-01T08:40:52.434Z,29.30
2019-06-01T08:43:21.344Z,29.60
2019-06-01T08:45:50.344Z,29.10
2019-06-01T08:48:19.070Z,28.80
2019-06-01T08:50:47.975Z,28.40
2019-06-01T08:53:16.659Z,28.10
2019-06-01T08:55:45.461Z,27.80
2019-06-01T08:58:14.180Z,27.20
2019-06-01T09:00:42.998Z,26.90
2019-06-01T09:03:11.794Z,26.60
2019-06-01T09:05:40.798Z,26.70
2019-06-01T09:08:09.605Z,26.90
2019-06-01T09:10:38.648Z,26.30
2019-06-01T09:13:07.605Z,25.60
2019-06-01T09:15:36.681Z,25.50
2019-06-01T09:18:05.840Z,26.00
2019-06-01T09:20:38.394Z,26.50
2019-06-01T09:23:05.510Z,26.60
2019-06-01T09:25:34.472Z,27.10
2019-06-01T09:28:03.204Z,27.30
2019-06-01T09:30:32.138Z,27.30
2019-06-01T09:33:01.149Z,27.80
2019-06-01T09:35:49.959Z,27.70
2019-06-01T09:38:00.723Z,27.20
2019-06-01T09:40:30.414Z,26.70
2019-06-01T09:43:00.011Z,26.20
2019-06-01T09:45:29.871Z,26.20
2019-06-01T09:47:59.012Z,26.20
2019-06-01T09:50:29.158Z,25.90
2019-06-01T09:52:58.199Z,26.40
2019-06-01T09:55:27.736Z,26.80
2019-06-01T09:57:57.373Z,27.20
2019-06-01T10:00:26.311Z,27.70
2019-06-01T10:02:55.136Z,27.50
2019-06-01T10:05:25.535Z,27.50
2019-06-01T10:07:54.477Z,28.00
2019-06-01T10:10:23.268Z,27.70
2019-06-01T10:12:52.363Z,27.30
2019-06-01T10:15:21.181Z,27.00
2019-06-01T10:17:50.121Z,26.90
2019-06-01T10:20:18.932Z,27.00
2019-06-01T10:22:47.898Z,27.10
2019-06-01T10:25:17.975Z,27.00
2019-06-01T10:27:47.885Z,26.90
2019-06-01T10:30:17.711Z,27.30
2019-06-01T10:32:46.628Z,27.60
2019-06-01T10:35:17.743Z,27.50
2019-06-01T10:37:46.692Z,26.70
2019-06-01T10:40:15.653Z,26.30
2019-06-01T10:42:44.479Z,26.10
2019-06-01T10:45:13.639Z,26.40
2019-06-01T10:47:42.387Z,26.90
2019-06-01T10:50:11.339Z,27.00
2019-06-01T10:52:40.396Z,27.00
2019-06-01T10:55:09.935Z,27.20
2019-06-01T10:57:40.579Z,27.00
2019-06-01T11:00:11.106Z,27.10
2019-06-01T11:02:40.852Z,26.90
2019-06-01T11:05:10.199Z,26.80
2019-06-01T11:07:39.190Z,27.00
2019-06-01T11:10:09.310Z,27.00
2019-06-01T11:12:39.117Z,27.00
2019-06-01T11:15:10.070Z,26.80
2019-06-01T11:17:39.271Z,26.70
2019-06-01T11:20:09.247Z,26.70
2019-06-01T11:22:39.754Z,27.00
2019-06-01T11:25:15.689Z,27.10
2019-06-01T11:27:44.485Z,27.10
2019-06-01T11:30:14.807Z,26.60
2019-06-01T11:32:44.971Z,26.40
2019-06-01T11:35:14.678Z,26.40
2019-06-01T11:37:44.536Z,26.60
2019-06-01T11:40:13.755Z,26.70
2019-06-01T11:42:43.022Z,26.50
2019-06-01T11:45:12.392Z,26.70
2019-06-01T11:47:41.406Z,26.70
2019-06-01T11:50:10.676Z,26.70
2019-06-01T11:52:41.066Z,26.50
2019-06-01T11:55:10.681Z,26.80
2019-06-01T11:58:05.818Z,26.40
2019-06-01T12:01:03.095Z,26.50
2019-06-01T12:06:19.839Z,26.70
2019-06-01T12:08:46.374Z,26.80
2019-06-01T12:11:10.539Z,27.10
2019-06-01T12:13:40.191Z,27.20
2019-06-01T12:16:11.136Z,27.30
2019-06-01T12:18:40.593Z,27.30
2019-06-01T12:21:09.941Z,27.10
2019-06-01T12:23:39.047Z,27.30
2019-06-01T12:26:07.698Z,27.20
2019-06-01T12:28:41.567Z,26.70
2019-06-01T12:31:10.592Z,26.70
2019-06-01T12:33:46.279Z,26.90
2019-06-01T12:36:15.209Z,27.20
2019-06-01T12:38:53.731Z,27.30
2019-06-01T12:41:23.689Z,27.40
2019-06-01T12:44:09.739Z,27.30
2019-06-01T12:46:39.798Z,27.20
2019-06-01T12:49:09.157Z,27.20
2019-06-01T12:51:38.254Z,27.30
2019-06-01T12:54:07.250Z,27.00
2019-06-01T12:56:36.206Z,26.80
2019-06-01T12:59:05.397Z,26.70
2019-06-01T13:01:34.197Z,26.60
2019-06-01T13:04:03.095Z,26.60
2019-06-01T13:06:31.807Z,26.30
2019-06-01T13:09:01.122Z,26.30
2019-06-01T13:11:29.826Z,26.30
2019-06-01T13:14:04.240Z,26.40
2019-06-01T13:16:32.147Z,26.70
2019-06-01T13:19:00.880Z,26.70
2019-06-01T13:21:29.693Z,26.50
2019-06-01T13:23:58.442Z,26.40
2019-06-01T13:26:27.793Z,26.40
2019-06-01T13:28:56.673Z,26.50
2019-06-01T13:31:25.537Z,26.70
2019-06-01T13:33:54.204Z,26.80
2019-06-01T13:36:23.307Z,26.60
2019-06-01T13:38:52.964Z,26.40
2019-06-01T13:41:21.976Z,26.20
2019-06-01T13:43:51.431Z,26.00
2019-06-01T13:46:20.468Z,25.80
2019-06-01T13:48:49.969Z,25.50
2019-06-01T13:51:18.984Z,25.70
2019-06-01T13:53:48.484Z,26.00
2019-06-01T13:56:17.550Z,26.40
2019-06-01T13:58:46.702Z,26.70
2019-06-01T14:01:15.759Z,27.00
2019-06-01T14:03:45.035Z,27.10
2019-06-01T14:06:14.324Z,27.20
2019-06-01T14:08:43.267Z,27.00
2019-06-01T14:11:13.109Z,27.10
2019-06-01T14:13:42.281Z,26.90
2019-06-01T14:16:11.299Z,26.90
2019-06-01T14:18:42.177Z,27.00
2019-06-01T14:21:10.956Z,27.10
2019-06-01T14:23:40.269Z,27.10
2019-06-01T14:26:08.997Z,27.30
2019-06-01T14:28:38.185Z,27.20
2019-06-01T14:31:06.922Z,27.10
2019-06-01T14:33:35.749Z,27.00
2019-06-01T14:36:04.605Z,26.80
2019-06-01T14:38:46.581Z,26.70
2019-06-01T14:41:04.429Z,26.40
2019-06-01T14:43:51.189Z,26.50
2019-06-01T14:46:09.183Z,26.20
2019-06-01T14:48:38.397Z,26.50
2019-06-01T14:51:10.599Z,26.90
2019-06-01T14:53:41.081Z,27.00
2019-06-01T14:56:09.962Z,27.10
2019-06-01T14:58:38.908Z,27.20
2019-06-01T15:01:07.733Z,27.30
2019-06-01T15:03:36.579Z,27.10
2019-06-01T15:06:06.081Z,27.10
2019-06-01T15:08:34.797Z,27.20
2019-06-01T15:11:03.502Z,26.70
2019-06-01T15:13:32.329Z,27.00
2019-06-01T15:16:02.023Z,27.10
2019-06-01T15:18:31.038Z,26.90
2019-06-01T15:20:59.933Z,26.90
2019-06-01T15:23:28.726Z,26.40
2019-06-01T15:26:04.695Z,26.40
2019-06-01T15:28:30.879Z,26.30
2019-06-01T15:31:01.455Z,25.90
2019-06-01T15:33:35.919Z,25.60
2019-06-01T15:36:08.376Z,25.40
2019-06-01T15:38:57.927Z,25.40
2019-06-01T15:41:32.302Z,25.30
2019-06-01T15:44:09.258Z,25.30
2019-06-01T15:46:38.124Z,25.20
2019-06-01T15:49:07.149Z,25.10
2019-06-01T15:51:39.214Z,25.00
2019-06-01T15:54:16.786Z,25.00
2019-06-01T15:56:45.733Z,25.20
2019-06-01T15:59:14.458Z,25.20
2019-06-01T16:01:43.321Z,25.20
2019-06-01T16:04:12.007Z,25.10
2019-06-01T16:06:40.797Z,25.00
2019-06-01T16:09:09.720Z,25.10
2019-06-01T16:11:42.028Z,25.10
2019-06-01T16:14:10.932Z,25.10
2019-06-01T16:16:39.678Z,25.20
2019-06-01T16:19:08.379Z,25.10
2019-06-01T16:21:37.160Z,25.10
2019-06-01T16:24:05.932Z,25.20
2019-06-01T16:26:34.753Z,25.10
2019-06-01T16:29:04.953Z,25.10
2019-06-01T16:31:40.295Z,25.10
2019-06-01T16:40:23.377Z,25.00
2019-06-01T16:42:52.199Z,24.90
2019-06-01T16:45:20.997Z,24.90
2019-06-01T16:47:55.899Z,24.90
2019-06-01T16:50:20.434Z,25.10
2019-06-01T16:52:49.311Z,25.30
2019-06-01T16:58:21.065Z,25.40
2019-06-01T17:00:49.941Z,25.10
2019-06-01T17:03:18.928Z,24.90
2019-06-01T17:05:47.791Z,24.70
2019-06-01T17:08:16.645Z,24.50
2019-06-01T17:10:52.661Z,24.40
2019-06-01T17:13:21.460Z,24.30
2019-06-01T17:15:50.228Z,24.10
2019-06-01T17:18:18.957Z,23.90
2019-06-01T17:20:57.156Z,23.70
2019-06-01T17:23:28.570Z,23.60
2019-06-01T17:25:59.852Z,23.40
2019-06-01T17:31:20.970Z,23.20
2019-06-01T17:33:51.873Z,23.10
2019-06-01T17:36:23.515Z,23.00
2019-06-01T17:38:53.603Z,22.90
2019-06-01T17:41:26.329Z,22.90
2019-06-01T17:44:02.582Z,22.90
2019-06-01T17:49:31.531Z,22.70
2019-06-01T17:54:40.509Z,22.50
2019-06-01T17:57:09.465Z,22.60
2019-06-01T17:59:38.375Z,22.50
2019-06-01T18:02:23.264Z,22.50
2019-06-01T18:04:52.124Z,22.50
2019-06-01T18:07:24.088Z,22.40
2019-06-01T18:10:02.443Z,22.40
2019-06-01T18:12:31.312Z,22.30
2019-06-01T18:17:52.909Z,22.20
2019-06-01T18:20:26.475Z,22.10
2019-06-01T18:23:13.200Z,22.10
2019-06-01T18:25:40.339Z,22.20
2019-06-01T18:28:19.482Z,22.20
2019-06-01T18:43:19.491Z,21.90
2019-06-01T18:45:39.935Z,21.80
2019-06-01T18:48:10.063Z,21.80
2019-06-01T18:50:39.317Z,21.70
2019-06-01T18:53:08.475Z,21.70
2019-06-01T18:55:37.466Z,21.70
2019-06-01T19:01:06.359Z,21.60
2019-06-01T19:03:35.279Z,21.50
2019-06-01T19:08:47.747Z,21.40
2019-06-01T19:11:34.762Z,21.30
2019-06-01T19:13:50.060Z,21.40
2019-06-01T19:16:26.617Z,21.30
2019-06-01T19:18:56.710Z,21.30
2019-06-01T19:21:37.944Z,21.20
2019-06-01T19:24:02.465Z,21.30
2019-06-01T19:26:31.187Z,21.20
2019-06-01T19:28:59.986Z,21.20
2019-06-01T19:31:28.718Z,21.10
2019-06-01T19:33:57.577Z,21.00
2019-06-01T19:36:26.847Z,21.00
2019-06-01T19:38:57.453Z,21.00
2019-06-01T19:41:26.171Z,20.90
2019-06-01T19:43:54.875Z,20.80
2019-06-01T19:46:23.719Z,20.80
2019-06-01T19:48:52.440Z,20.70
2019-06-01T19:51:21.257Z,20.60
2019-06-01T19:53:49.925Z,20.50
2019-06-01T19:56:20.453Z,20.70
2019-06-01T19:58:49.173Z,20.70
2019-06-01T20:01:19.537Z,20.60
2019-06-01T20:03:48.278Z,20.50
2019-06-01T20:06:17.116Z,20.50
2019-06-01T20:08:45.877Z,20.50
2019-06-01T20:11:15.118Z,20.40
2019-06-01T20:13:44.146Z,20.30
2019-06-01T20:16:12.817Z,20.30
2019-06-01T20:18:41.599Z,20.20
2019-06-01T20:21:10.242Z,20.10
2019-06-01T20:23:39.062Z,20.00
2019-06-01T20:26:07.756Z,19.90
2019-06-01T20:28:41.318Z,20.00
2019-06-01T20:31:11.654Z,20.00
2019-06-01T20:33:40.592Z,19.90
2019-06-01T20:36:09.296Z,19.80
2019-06-01T20:38:37.937Z,19.70
2019-06-01T20:41:06.643Z,19.70
2019-06-01T20:43:35.323Z,19.70
2019-06-01T20:46:04.083Z,19.70
2019-06-01T20:48:32.793Z,19.60
2019-06-01T20:51:01.511Z,19.50
2019-06-01T20:53:30.305Z,19.50
2019-06-01T20:55:58.997Z,19.40
2019-06-01T20:58:27.801Z,19.40
2019-06-01T21:04:28.657Z,19.20
2019-06-01T21:06:57.449Z,19.10
2019-06-01T21:09:26.262Z,19.00
2019-06-01T21:11:55.027Z,19.00
2019-06-01T21:14:23.724Z,18.90
2019-06-01T21:16:52.566Z,18.80
2019-06-01T21:19:22.408Z,18.80
2019-06-01T21:21:51.378Z,18.80
2019-06-01T21:24:21.113Z,18.70
2019-06-01T21:26:50.283Z,18.60
2019-06-01T21:58:55.498Z,18.10
2019-06-01T22:01:56.695Z,18.00
2019-06-01T22:04:38.746Z,18.00
2019-06-01T22:07:23.241Z,18.20
2019-06-01T22:09:52.209Z,18.20
2019-06-01T22:12:29.143Z,18.10
2019-06-01T22:16:15.870Z,18.10
2019-06-01T22:17:43.865Z,18.00
2019-06-01T22:20:14.131Z,17.90
2019-06-01T22:22:44.940Z,17.80
2019-06-01T22:25:13.733Z,17.80
2019-06-01T22:27:42.478Z,17.70
2019-06-01T22:30:13.144Z,17.70
2019-06-01T22:32:41.769Z,17.60
2019-06-01T22:35:10.572Z,17.50
2019-06-01T22:37:39.339Z,17.40
2019-06-01T22:40:08.778Z,17.40
2019-06-01T22:42:37.514Z,17.40
2019-06-01T22:45:09.002Z,17.40
2019-06-01T22:47:37.474Z,17.30
2019-06-01T22:50:11.471Z,17.30
2019-06-01T22:52:40.269Z,17.20
2019-06-01T22:55:09.022Z,17.20
2019-06-01T22:57:42.984Z,17.20
2019-06-01T23:00:10.184Z,17.10
2019-06-01T23:02:43.663Z,17.10
2019-06-01T23:05:12.116Z,17.10
2019-06-01T23:07:44.020Z,17.00
2019-06-01T23:10:17.281Z,17.00
2019-06-01T23:12:46.087Z,17.00
2019-06-01T23:15:23.301Z,16.90
2019-06-01T23:17:52.665Z,16.90
2019-06-01T23:20:23.819Z,16.80
2019-06-01T23:22:52.539Z,16.80
2019-06-01T23:25:22.536Z,16.80
2019-06-01T23:27:51.408Z,16.80
2019-06-01T23:30:20.298Z,16.80
2019-06-01T23:32:49.125Z,16.80
2019-06-01T23:35:17.849Z,16.70
2019-06-01T23:37:46.576Z,16.70
2019-06-01T23:40:15.269Z,16.70
2019-06-01T23:42:44.152Z,16.70
2019-06-01T23:45:12.862Z,16.70
2019-06-01T23:47:41.747Z,16.70
2019-06-01T23:50:10.672Z,16.80
2019-06-01T23:52:39.433Z,16.70
2019-06-01T23:55:08.260Z,16.70
2019-06-01T23:57:37.130Z,16.60
